createdAt,value
2022-12-25T00:01:14.703Z,61.73
2022-12-25T00:06:18.518Z,62.21
2022-12-25T00:11:22.266Z,62.01
2022-12-25T00:16:27.938Z,61.94
2022-12-25T00:21:30.766Z,62.51
2022-12-25T00:26:33.538Z,62.16
2022-12-25T00:31:37.783Z,62.29
2022-12-25T00:36:42.167Z,62.31
2022-12-25T00:42:02.852Z,62.54
2022-12-25T00:47:07.204Z,62.41
2022-12-25T00:52:10.979Z,62.31
2022-12-25T00:57:13.824Z,62.38
2022-12-25T01:02:26.889Z,62.36
2022-12-25T01:07:29.813Z,62.68
2022-12-25T01:12:33.365Z,62.14
2022-12-25T01:17:37.936Z,62.65
2022-12-25T01:22:40.861Z,62.59
2022-12-25T01:27:44.133Z,62.31
2022-12-25T01:32:48.297Z,62.58
2022-12-25T01:37:51.114Z,63.01
2022-12-25T01:42:53.857Z,63.53
2022-12-25T01:47:58.423Z,63.85
2022-12-25T01:53:01.483Z,64.04
2022-12-25T01:58:04.549Z,64.50
2022-12-25T02:03:08.885Z,64.75
2022-12-25T02:08:13.653Z,64.80
2022-12-25T02:13:19.159Z,64.65
2022-12-25T02:18:33.847Z,64.72
2022-12-25T02:24:25.373Z,64.80
2022-12-25T02:29:37.707Z,65.13
2022-12-25T02:34:48.371Z,65.48
2022-12-25T02:40:00.720Z,65.92
2022-12-25T02:45:22.940Z,65.98
2022-12-25T02:50:44.879Z,66.09
2022-12-25T02:56:08.593Z,66.17
2022-12-25T03:01:33.480Z,66.39
2022-12-25T03:06:44.316Z,66.54
2022-12-25T03:12:01.011Z,66.74
2022-12-25T03:17:06.635Z,67.04
2022-12-25T03:22:31.239Z,67.25
2022-12-25T03:27:36.156Z,67.50
2022-12-25T03:32:47.283Z,67.62
2022-12-25T03:38:14.685Z,67.82
2022-12-25T03:43:45.105Z,68.10
2022-12-25T03:49:14.614Z,68.30
2022-12-25T03:54:41.814Z,68.57
2022-12-25T04:00:01.966Z,68.80
2022-12-25T04:05:30.791Z,68.96
2022-12-25T04:10:50.995Z,69.01
2022-12-25T04:16:23.310Z,69.13
2022-12-25T04:21:45.168Z,69.22
2022-12-25T04:27:05.316Z,69.37
2022-12-25T04:32:26.024Z,69.42
2022-12-25T04:37:30.294Z,69.52
2022-12-25T04:42:33.079Z,69.63
2022-12-25T04:47:35.881Z,69.68
2022-12-25T04:52:42.041Z,69.63
2022-12-25T04:57:44.843Z,69.92
2022-12-25T05:02:47.789Z,69.97
2022-12-25T05:07:51.955Z,70.13
2022-12-25T05:12:54.894Z,70.30
2022-12-25T05:17:57.796Z,70.16
2022-12-25T05:23:02.228Z,70.37
2022-12-25T05:28:05.507Z,70.53
2022-12-25T05:33:08.312Z,70.46
2022-12-25T05:38:12.499Z,70.59
2022-12-25T05:43:15.248Z,70.91
2022-12-25T05:48:18.371Z,70.91
2022-12-25T05:53:22.643Z,70.91
2022-12-25T05:58:25.377Z,71.01
2022-12-25T06:03:28.300Z,70.99
2022-12-25T06:08:33.302Z,71.26
2022-12-25T06:13:36.745Z,71.23
2022-12-25T06:18:41.558Z,71.52
2022-12-25T06:23:46.336Z,71.64
2022-12-25T06:28:49.160Z,71.63
2022-12-25T06:33:52.248Z,71.75
2022-12-25T06:38:57.130Z,71.75
2022-12-25T06:44:02.207Z,71.95
2022-12-25T06:49:04.953Z,71.93
2022-12-25T06:54:09.871Z,71.77
2022-12-25T06:59:12.956Z,71.77
2022-12-25T07:04:22.205Z,71.98
2022-12-25T07:09:26.295Z,71.99
2022-12-25T07:14:29.073Z,72.10
2022-12-25T07:19:31.898Z,72.32
2022-12-25T07:24:36.074Z,72.28
2022-12-25T07:29:39.107Z,72.46
2022-12-25T07:34:41.956Z,72.28
2022-12-25T07:39:46.359Z,72.30
2022-12-25T07:44:49.207Z,72.42
2022-12-25T07:49:51.948Z,72.55
2022-12-25T07:54:56.149Z,72.29
2022-12-25T07:59:58.961Z,72.27
2022-12-25T08:05:01.826Z,58.05
2022-12-25T08:10:07.124Z,57.21
2022-12-25T08:15:10.671Z,60.22
2022-12-25T08:20:14.829Z,60.50
2022-12-25T08:25:19.204Z,61.40
2022-12-25T08:30:22.360Z,61.99
2022-12-25T08:35:26.198Z,63.28
2022-12-25T08:40:30.390Z,65.03
2022-12-25T08:45:35.454Z,65.84
2022-12-25T08:50:38.479Z,65.79
2022-12-25T08:55:43.127Z,65.99
2022-12-25T09:00:45.976Z,65.97
2022-12-25T09:05:48.726Z,66.22
2022-12-25T09:10:53.184Z,66.37
2022-12-25T09:15:56.182Z,66.70
2022-12-25T09:21:00.519Z,67.04
2022-12-25T09:26:06.437Z,67.34
2022-12-25T09:31:09.571Z,68.26
2022-12-25T09:36:12.669Z,68.62
2022-12-25T09:41:21.045Z,68.77
2022-12-25T09:46:34.840Z,69.06
2022-12-25T09:51:45.330Z,69.49
2022-12-25T09:56:49.699Z,69.63
2022-12-25T10:02:11.413Z,69.90
2022-12-25T10:07:24.707Z,70.04
2022-12-25T10:12:40.795Z,70.28
2022-12-25T10:18:01.211Z,70.33
2022-12-25T10:23:10.348Z,70.36
2022-12-25T10:28:20.774Z,70.43
2022-12-25T10:33:23.853Z,70.50
2022-12-25T10:38:26.643Z,70.58
2022-12-25T10:43:39.666Z,70.66
2022-12-25T10:48:46.175Z,70.71
2022-12-25T10:53:49.153Z,70.59
2022-12-25T10:59:05.236Z,70.27
2022-12-25T11:04:08.656Z,69.96
2022-12-25T11:09:17.803Z,69.33
2022-12-25T11:14:23.201Z,69.49
2022-12-25T11:19:28.962Z,69.37
2022-12-25T11:24:34.966Z,69.33
2022-12-25T11:29:46.002Z,69.20
2022-12-25T11:34:50.606Z,69.66
2022-12-25T11:39:53.557Z,69.14
2022-12-25T11:45:05.321Z,69.83
2022-12-25T11:50:20.353Z,69.90
2022-12-25T11:55:33.718Z,69.92
2022-12-25T12:00:38.085Z,69.82
2022-12-25T12:05:47.013Z,69.61
2022-12-25T12:11:15.830Z,68.93
2022-12-25T12:16:20.575Z,69.13
2022-12-25T12:21:25.332Z,68.93
2022-12-25T12:26:30.404Z,69.06
2022-12-25T12:31:43.967Z,67.87
2022-12-25T12:36:47.108Z,67.32
2022-12-25T12:41:50.517Z,66.17
2022-12-25T12:46:57.979Z,65.42
2022-12-25T12:52:06.216Z,65.16
2022-12-25T12:57:25.263Z,65.17
2022-12-25T13:03:05.742Z,65.63
2022-12-25T13:08:26.557Z,65.15
2022-12-25T13:13:35.788Z,65.47
2022-12-25T13:18:40.896Z,65.34
2022-12-25T13:23:44.105Z,65.03
2022-12-25T13:28:48.139Z,65.02
2022-12-25T13:33:59.034Z,64.94
2022-12-25T13:39:02.447Z,64.73
2022-12-25T13:44:12.954Z,65.03
2022-12-25T13:49:19.044Z,65.38
2022-12-25T13:54:22.264Z,65.55
2022-12-25T13:59:54.230Z,65.34
2022-12-25T14:04:58.538Z,65.09
2022-12-25T14:10:03.568Z,65.08
2022-12-25T14:15:07.867Z,65.21
2022-12-25T14:20:26.006Z,65.12
2022-12-25T14:25:31.280Z,65.43
2022-12-25T14:30:34.655Z,65.56
2022-12-25T14:35:39.044Z,65.40
2022-12-25T14:40:45.266Z,65.42
2022-12-25T14:45:56.481Z,65.59
2022-12-25T14:51:04.362Z,65.60
2022-12-25T14:56:08.999Z,65.66
2022-12-25T15:01:21.969Z,65.73
2022-12-25T15:06:26.601Z,65.67
2022-12-25T15:11:30.526Z,65.67
2022-12-25T15:16:39.594Z,65.77
2022-12-25T15:21:44.435Z,65.90
2022-12-25T15:26:47.265Z,66.29
2022-12-25T15:31:50.183Z,66.48
2022-12-25T15:36:54.679Z,66.34
2022-12-25T15:42:12.739Z,66.46
2022-12-25T15:47:17.409Z,66.62
2022-12-25T15:52:21.557Z,66.66
2022-12-25T15:57:26.290Z,67.00
2022-12-25T16:02:29.261Z,67.04
2022-12-25T16:07:33.661Z,67.16
2022-12-25T16:12:36.400Z,67.08
2022-12-25T16:17:39.776Z,67.24
2022-12-25T16:22:43.921Z,67.44
2022-12-25T16:27:47.251Z,67.94
2022-12-25T16:32:51.730Z,68.16
2022-12-25T16:37:56.075Z,67.82
2022-12-25T16:42:59.217Z,68.18
2022-12-25T16:48:02.021Z,68.17
2022-12-25T16:53:06.429Z,68.15
2022-12-25T16:58:09.252Z,68.15
2022-12-25T17:03:12.214Z,68.33
2022-12-25T17:08:16.563Z,68.37
2022-12-25T17:13:19.598Z,68.67
2022-12-25T17:18:22.372Z,68.99
2022-12-25T17:23:26.485Z,68.61
2022-12-25T17:28:29.368Z,68.49
2022-12-25T17:33:32.355Z,68.71
2022-12-25T17:38:50.786Z,68.54
2022-12-25T17:43:53.874Z,68.82
2022-12-25T17:48:59.890Z,68.91
2022-12-25T17:54:04.291Z,68.81
2022-12-25T17:59:10.454Z,68.65
2022-12-25T18:04:13.687Z,68.98
2022-12-25T18:09:18.794Z,69.01
2022-12-25T18:14:22.119Z,68.98
2022-12-25T18:19:24.925Z,69.08
2022-12-25T18:24:29.281Z,69.82
2022-12-25T18:29:32.108Z,71.20
2022-12-25T18:34:34.989Z,71.21
2022-12-25T18:39:39.262Z,71.19
2022-12-25T18:44:42.029Z,70.95
2022-12-25T18:49:44.781Z,71.29
2022-12-25T18:54:49.390Z,71.55
2022-12-25T18:59:53.574Z,71.63
2022-12-25T19:04:56.644Z,71.96
2022-12-25T19:10:00.816Z,71.64
2022-12-25T19:15:04.001Z,71.76
2022-12-25T19:20:07.805Z,72.23
2022-12-25T19:25:12.216Z,72.33
2022-12-25T19:30:15.743Z,72.15
2022-12-25T19:35:18.750Z,72.48
2022-12-25T19:40:23.124Z,72.13
2022-12-25T19:45:25.958Z,71.37
2022-12-25T19:50:32.761Z,70.73
2022-12-25T19:55:36.954Z,69.74
2022-12-25T20:00:40.334Z,69.39
2022-12-25T20:05:45.559Z,69.23
2022-12-25T20:10:50.243Z,68.69
2022-12-25T20:15:52.990Z,68.27
2022-12-25T20:21:01.557Z,67.82
2022-12-25T20:26:06.284Z,67.77
2022-12-25T20:31:11.390Z,67.48
2022-12-25T20:36:14.401Z,67.01
2022-12-25T20:41:29.559Z,66.77
2022-12-25T20:46:32.950Z,66.68
2022-12-25T20:51:36.184Z,66.49
2022-12-25T20:56:40.378Z,66.30
2022-12-25T21:01:43.799Z,66.15
2022-12-25T21:06:46.628Z,66.02
2022-12-25T21:11:50.709Z,65.81
2022-12-25T21:16:53.510Z,65.81
2022-12-25T21:21:56.440Z,65.44
2022-12-25T21:27:00.843Z,64.91
2022-12-25T21:32:21.264Z,65.43
2022-12-25T21:37:24.084Z,65.47
2022-12-25T21:42:28.257Z,65.04
2022-12-25T21:48:02.655Z,65.17
2022-12-25T21:52:53.853Z,65.28
2022-12-25T21:57:58.024Z,65.02
2022-12-25T22:03:01.100Z,65.01
2022-12-25T22:08:04.409Z,65.20
2022-12-25T22:13:28.250Z,65.17
2022-12-25T22:18:48.745Z,64.78
2022-12-25T22:23:52.269Z,64.75
2022-12-25T22:28:56.480Z,64.92
2022-12-25T22:33:59.314Z,64.85
2022-12-25T22:39:02.078Z,64.54
2022-12-25T22:44:17.022Z,64.77
2022-12-25T22:49:21.438Z,64.74
2022-12-25T22:54:25.772Z,64.61
2022-12-25T22:59:29.926Z,64.44
2022-12-25T23:04:32.995Z,64.51
2022-12-25T23:09:35.777Z,65.24
2022-12-25T23:14:40.266Z,65.08
2022-12-25T23:20:05.826Z,65.11
2022-12-25T23:25:32.948Z,64.97
2022-12-25T23:30:37.125Z,65.30
2022-12-25T23:35:39.909Z,65.31
2022-12-25T23:40:42.692Z,65.64
2022-12-25T23:45:46.893Z,65.59
2022-12-25T23:50:49.627Z,66.06
2022-12-25T23:55:55.888Z,66.25
